sensor_id;sensor_type;location;lat;lon;timestamp;P1;durP1;ratioP1;P2;durP2;ratioP2
65459;SDS011;52058;49.822;6.754;2023-09-19T00:00:38;17.63;;;5.97;;
65459;SDS011;52058;49.822;6.754;2023-09-19T00:03:06;14.35;;;6.63;;
65459;SDS011;52058;49.822;6.754;2023-09-19T00:05:35;11.98;;;6.35;;
65459;SDS011;52058;49.822;6.754;2023-09-19T00:08:04;14.88;;;6.70;;
65459;SDS011;52058;49.822;6.754;2023-09-19T00:10:31;16.83;;;6.70;;
65459;SDS011;52058;49.822;6.754;2023-09-19T00:13:00;15.82;;;6.78;;
65459;SDS011;52058;49.822;6.754;2023-09-19T00:15:30;14.55;;;6.63;;
65459;SDS011;52058;49.822;6.754;2023-09-19T00:18:02;15.93;;;6.57;;
65459;SDS011;52058;49.822;6.754;2023-09-19T00:20:31;15.38;;;6.70;;
65459;SDS011;52058;49.822;6.754;2023-09-19T00:23:01;15.20;;;7.47;;
65459;SDS011;52058;49.822;6.754;2023-09-19T00:25:33;16.02;;;7.13;;
65459;SDS011;52058;49.822;6.754;2023-09-19T00:28:02;16.70;;;7.57;;
65459;SDS011;52058;49.822;6.754;2023-09-19T00:30:29;20.13;;;7.78;;
65459;SDS011;52058;49.822;6.754;2023-09-19T00:32:56;18.45;;;7.50;;
65459;SDS011;52058;49.822;6.754;2023-09-19T00:35:23;13.60;;;6.88;;
65459;SDS011;52058;49.822;6.754;2023-09-19T00:37:49;17.63;;;7.28;;
65459;SDS011;52058;49.822;6.754;2023-09-19T00:40:18;16.55;;;7.47;;
65459;SDS011;52058;49.822;6.754;2023-09-19T00:42:46;15.65;;;7.15;;
65459;SDS011;52058;49.822;6.754;2023-09-19T00:45:13;17.98;;;6.85;;
65459;SDS011;52058;49.822;6.754;2023-09-19T00:47:42;19.17;;;7.72;;
65459;SDS011;52058;49.822;6.754;2023-09-19T00:50:10;13.27;;;7.20;;
65459;SDS011;52058;49.822;6.754;2023-09-19T00:52:39;17.05;;;6.70;;
65459;SDS011;52058;49.822;6.754;2023-09-19T00:55:09;16.67;;;6.90;;
65459;SDS011;52058;49.822;6.754;2023-09-19T00:57:38;16.85;;;7.40;;
65459;SDS011;52058;49.822;6.754;2023-09-19T01:00:05;18.38;;;7.45;;
65459;SDS011;52058;49.822;6.754;2023-09-19T01:02:37;15.27;;;7.27;;
65459;SDS011;52058;49.822;6.754;2023-09-19T01:05:04;19.30;;;7.18;;
65459;SDS011;52058;49.822;6.754;2023-09-19T01:07:32;18.42;;;7.82;;
65459;SDS011;52058;49.822;6.754;2023-09-19T01:09:59;17.42;;;7.80;;
65459;SDS011;52058;49.822;6.754;2023-09-19T01:15:17;17.65;;;7.85;;
65459;SDS011;52058;49.822;6.754;2023-09-19T01:17:56;16.45;;;7.72;;
65459;SDS011;52058;49.822;6.754;2023-09-19T01:20:30;18.02;;;7.97;;
65459;SDS011;52058;49.822;6.754;2023-09-19T01:23:06;16.75;;;7.43;;
65459;SDS011;52058;49.822;6.754;2023-09-19T01:25:50;17.50;;;7.70;;
65459;SDS011;52058;49.822;6.754;2023-09-19T01:29:00;20.40;;;7.65;;
65459;SDS011;52058;49.822;6.754;2023-09-19T01:31:40;21.73;;;7.53;;
65459;SDS011;52058;49.822;6.754;2023-09-19T01:34:08;19.75;;;8.23;;
65459;SDS011;52058;49.822;6.754;2023-09-19T01:36:36;15.40;;;7.90;;
65459;SDS011;52058;49.822;6.754;2023-09-19T01:39:04;17.80;;;8.23;;
65459;SDS011;52058;49.822;6.754;2023-09-19T01:41:38;17.92;;;7.40;;
65459;SDS011;52058;49.822;6.754;2023-09-19T01:44:15;19.60;;;7.32;;
65459;SDS011;52058;49.822;6.754;2023-09-19T01:49:18;22.90;;;8.10;;
65459;SDS011;52058;49.822;6.754;2023-09-19T01:51:56;20.30;;;8.50;;
65459;SDS011;52058;49.822;6.754;2023-09-19T01:54:26;21.58;;;9.10;;
65459;SDS011;52058;49.822;6.754;2023-09-19T01:56:54;15.10;;;7.78;;
65459;SDS011;52058;49.822;6.754;2023-09-19T01:59:28;22.17;;;8.20;;
65459;SDS011;52058;49.822;6.754;2023-09-19T02:01:59;19.40;;;9.02;;
65459;SDS011;52058;49.822;6.754;2023-09-19T02:04:26;18.67;;;9.30;;
65459;SDS011;52058;49.822;6.754;2023-09-19T02:06:53;19.45;;;8.90;;
65459;SDS011;52058;49.822;6.754;2023-09-19T02:09:20;21.63;;;8.52;;
65459;SDS011;52058;49.822;6.754;2023-09-19T02:11:47;16.95;;;8.27;;
65459;SDS011;52058;49.822;6.754;2023-09-19T02:14:14;16.73;;;9.13;;
65459;SDS011;52058;49.822;6.754;2023-09-19T02:16:41;22.20;;;9.07;;
65459;SDS011;52058;49.822;6.754;2023-09-19T02:19:08;18.27;;;8.20;;
65459;SDS011;52058;49.822;6.754;2023-09-19T02:21:35;24.08;;;8.38;;
65459;SDS011;52058;49.822;6.754;2023-09-19T02:24:03;20.88;;;8.63;;
65459;SDS011;52058;49.822;6.754;2023-09-19T02:26:30;20.90;;;8.70;;
65459;SDS011;52058;49.822;6.754;2023-09-19T02:28:56;22.27;;;8.60;;
65459;SDS011;52058;49.822;6.754;2023-09-19T02:31:23;19.98;;;9.15;;
65459;SDS011;52058;49.822;6.754;2023-09-19T02:33:49;17.85;;;8.48;;
65459;SDS011;52058;49.822;6.754;2023-09-19T02:36:17;22.70;;;8.85;;
65459;SDS011;52058;49.822;6.754;2023-09-19T02:38:44;18.20;;;8.38;;
65459;SDS011;52058;49.822;6.754;2023-09-19T02:41:11;17.40;;;8.38;;
65459;SDS011;52058;49.822;6.754;2023-09-19T02:43:38;19.17;;;8.70;;
65459;SDS011;52058;49.822;6.754;2023-09-19T02:46:04;15.82;;;7.72;;
65459;SDS011;52058;49.822;6.754;2023-09-19T02:48:31;22.17;;;8.48;;
65459;SDS011;52058;49.822;6.754;2023-09-19T02:50:59;18.27;;;8.52;;
65459;SDS011;52058;49.822;6.754;2023-09-19T02:53:27;24.05;;;8.32;;
65459;SDS011;52058;49.822;6.754;2023-09-19T02:55:56;20.42;;;8.82;;
65459;SDS011;52058;49.822;6.754;2023-09-19T02:58:22;24.33;;;8.95;;
65459;SDS011;52058;49.822;6.754;2023-09-19T03:00:50;20.25;;;8.98;;
65459;SDS011;52058;49.822;6.754;2023-09-19T03:03:16;20.27;;;8.60;;
65459;SDS011;52058;49.822;6.754;2023-09-19T03:05:42;22.17;;;8.98;;
65459;SDS011;52058;49.822;6.754;2023-09-19T03:08:11;19.08;;;8.63;;
65459;SDS011;52058;49.822;6.754;2023-09-19T03:10:41;20.92;;;8.45;;
65459;SDS011;52058;49.822;6.754;2023-09-19T03:13:07;21.38;;;8.35;;
65459;SDS011;52058;49.822;6.754;2023-09-19T03:15:35;16.65;;;8.18;;
65459;SDS011;52058;49.822;6.754;2023-09-19T03:18:03;19.52;;;7.85;;
65459;SDS011;52058;49.822;6.754;2023-09-19T03:20:30;21.70;;;8.30;;
65459;SDS011;52058;49.822;6.754;2023-09-19T03:22:57;19.60;;;8.45;;
65459;SDS011;52058;49.822;6.754;2023-09-19T03:25:25;17.33;;;7.90;;
65459;SDS011;52058;49.822;6.754;2023-09-19T03:27:55;14.60;;;7.70;;
65459;SDS011;52058;49.822;6.754;2023-09-19T03:30:23;14.13;;;6.97;;
65459;SDS011;52058;49.822;6.754;2023-09-19T03:32:49;19.38;;;7.82;;
65459;SDS011;52058;49.822;6.754;2023-09-19T03:35:16;17.33;;;7.32;;
65459;SDS011;52058;49.822;6.754;2023-09-19T03:37:43;14.55;;;6.65;;
65459;SDS011;52058;49.822;6.754;2023-09-19T03:40:10;18.35;;;7.00;;
65459;SDS011;52058;49.822;6.754;2023-09-19T03:42:38;15.05;;;6.47;;
65459;SDS011;52058;49.822;6.754;2023-09-19T03:45:06;12.25;;;6.63;;
65459;SDS011;52058;49.822;6.754;2023-09-19T03:47:37;16.55;;;6.38;;
65459;SDS011;52058;49.822;6.754;2023-09-19T03:50:04;16.92;;;6.40;;
65459;SDS011;52058;49.822;6.754;2023-09-19T03:52:32;11.65;;;6.63;;
65459;SDS011;52058;49.822;6.754;2023-09-19T03:54:58;18.02;;;6.65;;
65459;SDS011;52058;49.822;6.754;2023-09-19T03:57:25;16.85;;;6.68;;
65459;SDS011;52058;49.822;6.754;2023-09-19T03:59:52;19.05;;;7.25;;
65459;SDS011;52058;49.822;6.754;2023-09-19T04:02:20;20.50;;;7.50;;
65459;SDS011;52058;49.822;6.754;2023-09-19T04:04:48;17.45;;;7.70;;
65459;SDS011;52058;49.822;6.754;2023-09-19T04:07:15;17.15;;;7.68;;
65459;SDS011;52058;49.822;6.754;2023-09-19T04:09:41;17.83;;;8.43;;
65459;SDS011;52058;49.822;6.754;2023-09-19T04:12:08;19.30;;;7.68;;
65459;SDS011;52058;49.822;6.754;2023-09-19T04:14:34;13.80;;;7.57;;
65459;SDS011;52058;49.822;6.754;2023-09-19T04:17:01;16.13;;;7.45;;
65459;SDS011;52058;49.822;6.754;2023-09-19T04:19:29;15.93;;;7.60;;
65459;SDS011;52058;49.822;6.754;2023-09-19T04:21:55;14.90;;;7.25;;
65459;SDS011;52058;49.822;6.754;2023-09-19T04:24:22;14.88;;;7.53;;
65459;SDS011;52058;49.822;6.754;2023-09-19T04:26:49;18.95;;;7.13;;
65459;SDS011;52058;49.822;6.754;2023-09-19T04:29:15;14.88;;;6.32;;
65459;SDS011;52058;49.822;6.754;2023-09-19T04:31:44;12.55;;;6.38;;
65459;SDS011;52058;49.822;6.754;2023-09-19T04:34:11;15.38;;;6.40;;
65459;SDS011;52058;49.822;6.754;2023-09-19T04:36:43;14.95;;;6.07;;
65459;SDS011;52058;49.822;6.754;2023-09-19T04:39:10;21.13;;;7.45;;
65459;SDS011;52058;49.822;6.754;2023-09-19T04:41:37;14.57;;;5.80;;
65459;SDS011;52058;49.822;6.754;2023-09-19T04:44:06;15.13;;;5.80;;
65459;SDS011;52058;49.822;6.754;2023-09-19T04:46:33;12.52;;;5.88;;
65459;SDS011;52058;49.822;6.754;2023-09-19T04:49:00;11.35;;;5.57;;
65459;SDS011;52058;49.822;6.754;2023-09-19T04:51:27;14.23;;;5.60;;
65459;SDS011;52058;49.822;6.754;2023-09-19T04:53:59;10.20;;;5.85;;
65459;SDS011;52058;49.822;6.754;2023-09-19T04:56:26;13.10;;;5.53;;
65459;SDS011;52058;49.822;6.754;2023-09-19T04:58:53;12.93;;;5.65;;
65459;SDS011;52058;49.822;6.754;2023-09-19T05:01:20;16.25;;;6.15;;
65459;SDS011;52058;49.822;6.754;2023-09-19T05:03:48;12.73;;;5.22;;
65459;SDS011;52058;49.822;6.754;2023-09-19T05:06:17;10.80;;;5.38;;
65459;SDS011;52058;49.822;6.754;2023-09-19T05:08:43;12.23;;;5.32;;
65459;SDS011;52058;49.822;6.754;2023-09-19T05:11:11;10.57;;;5.05;;
65459;SDS011;52058;49.822;6.754;2023-09-19T05:13:38;12.07;;;5.40;;
65459;SDS011;52058;49.822;6.754;2023-09-19T05:16:04;16.00;;;5.85;;
65459;SDS011;52058;49.822;6.754;2023-09-19T05:18:34;14.02;;;5.60;;
65459;SDS011;52058;49.822;6.754;2023-09-19T05:21:01;9.80;;;4.95;;
65459;SDS011;52058;49.822;6.754;2023-09-19T05:23:28;12.02;;;5.03;;
65459;SDS011;52058;49.822;6.754;2023-09-19T05:25:55;11.20;;;5.13;;
65459;SDS011;52058;49.822;6.754;2023-09-19T05:28:24;9.85;;;4.13;;
65459;SDS011;52058;49.822;6.754;2023-09-19T05:30:51;9.10;;;3.85;;
65459;SDS011;52058;49.822;6.754;2023-09-19T05:33:18;11.35;;;4.55;;
65459;SDS011;52058;49.822;6.754;2023-09-19T05:35:45;9.20;;;4.30;;
65459;SDS011;52058;49.822;6.754;2023-09-19T05:38:12;12.95;;;4.90;;
65459;SDS011;52058;49.822;6.754;2023-09-19T05:40:39;6.80;;;3.90;;
65459;SDS011;52058;49.822;6.754;2023-09-19T05:43:07;10.10;;;4.95;;
65459;SDS011;52058;49.822;6.754;2023-09-19T05:45:35;10.25;;;4.80;;
65459;SDS011;52058;49.822;6.754;2023-09-19T05:48:07;8.27;;;4.50;;
65459;SDS011;52058;49.822;6.754;2023-09-19T05:50:34;11.37;;;4.60;;
65459;SDS011;52058;49.822;6.754;2023-09-19T05:53:01;9.88;;;4.53;;
65459;SDS011;52058;49.822;6.754;2023-09-19T05:55:29;10.90;;;4.55;;
65459;SDS011;52058;49.822;6.754;2023-09-19T05:57:59;9.65;;;3.60;;
65459;SDS011;52058;49.822;6.754;2023-09-19T06:00:26;11.75;;;3.90;;
65459;SDS011;52058;49.822;6.754;2023-09-19T06:02:56;9.88;;;4.15;;
65459;SDS011;52058;49.822;6.754;2023-09-19T06:05:23;9.63;;;4.00;;
65459;SDS011;52058;49.822;6.754;2023-09-19T06:07:51;11.00;;;4.13;;
65459;SDS011;52058;49.822;6.754;2023-09-19T06:10:19;11.35;;;4.50;;
65459;SDS011;52058;49.822;6.754;2023-09-19T06:12:48;10.15;;;4.85;;
65459;SDS011;52058;49.822;6.754;2023-09-19T06:15:15;11.25;;;4.10;;
65459;SDS011;52058;49.822;6.754;2023-09-19T06:17:46;7.85;;;3.72;;
65459;SDS011;52058;49.822;6.754;2023-09-19T06:20:14;9.32;;;4.05;;
65459;SDS011;52058;49.822;6.754;2023-09-19T06:22:42;12.60;;;3.95;;
65459;SDS011;52058;49.822;6.754;2023-09-19T06:25:16;9.52;;;3.58;;
65459;SDS011;52058;49.822;6.754;2023-09-19T06:27:45;11.57;;;3.67;;
65459;SDS011;52058;49.822;6.754;2023-09-19T06:30:11;10.95;;;4.00;;
65459;SDS011;52058;49.822;6.754;2023-09-19T06:32:39;14.60;;;3.70;;
65459;SDS011;52058;49.822;6.754;2023-09-19T06:35:09;8.98;;;3.65;;
65459;SDS011;52058;49.822;6.754;2023-09-19T06:37:37;8.35;;;3.90;;
65459;SDS011;52058;49.822;6.754;2023-09-19T06:40:06;7.38;;;3.13;;
65459;SDS011;52058;49.822;6.754;2023-09-19T06:42:35;12.85;;;3.38;;
65459;SDS011;52058;49.822;6.754;2023-09-19T06:45:03;9.20;;;3.60;;
65459;SDS011;52058;49.822;6.754;2023-09-19T06:47:30;11.52;;;4.00;;
65459;SDS011;52058;49.822;6.754;2023-09-19T06:49:57;10.70;;;3.80;;
65459;SDS011;52058;49.822;6.754;2023-09-19T06:52:23;15.57;;;4.53;;
65459;SDS011;52058;49.822;6.754;2023-09-19T06:54:54;15.25;;;4.68;;
65459;SDS011;52058;49.822;6.754;2023-09-19T06:57:21;13.60;;;4.30;;
65459;SDS011;52058;49.822;6.754;2023-09-19T06:59:47;12.23;;;3.58;;
65459;SDS011;52058;49.822;6.754;2023-09-19T07:02:14;14.07;;;3.35;;
65459;SDS011;52058;49.822;6.754;2023-09-19T07:04:40;13.68;;;3.30;;
65459;SDS011;52058;49.822;6.754;2023-09-19T07:07:07;9.55;;;3.90;;
65459;SDS011;52058;49.822;6.754;2023-09-19T07:09:35;12.10;;;2.88;;
65459;SDS011;52058;49.822;6.754;2023-09-19T07:12:03;10.88;;;2.92;;
65459;SDS011;52058;49.822;6.754;2023-09-19T07:14:31;11.82;;;2.83;;
65459;SDS011;52058;49.822;6.754;2023-09-19T07:16:57;11.88;;;3.15;;
65459;SDS011;52058;49.822;6.754;2023-09-19T07:19:25;10.98;;;2.92;;
65459;SDS011;52058;49.822;6.754;2023-09-19T07:21:53;5.20;;;2.38;;
65459;SDS011;52058;49.822;6.754;2023-09-19T07:24:20;9.77;;;2.78;;
65459;SDS011;52058;49.822;6.754;2023-09-19T07:26:49;12.13;;;2.70;;
65459;SDS011;52058;49.822;6.754;2023-09-19T07:29:17;11.43;;;2.72;;
65459;SDS011;52058;49.822;6.754;2023-09-19T07:31:43;9.52;;;2.42;;
65459;SDS011;52058;49.822;6.754;2023-09-19T07:34:10;8.63;;;3.97;;
65459;SDS011;52058;49.822;6.754;2023-09-19T07:36:36;10.60;;;2.60;;
65459;SDS011;52058;49.822;6.754;2023-09-19T07:39:04;8.65;;;2.22;;
65459;SDS011;52058;49.822;6.754;2023-09-19T07:41:32;7.80;;;2.55;;
65459;SDS011;52058;49.822;6.754;2023-09-19T07:43:58;7.40;;;2.70;;
65459;SDS011;52058;49.822;6.754;2023-09-19T07:46:27;7.93;;;2.72;;
65459;SDS011;52058;49.822;6.754;2023-09-19T07:48:56;7.88;;;2.67;;
65459;SDS011;52058;49.822;6.754;2023-09-19T07:51:23;8.55;;;2.60;;
65459;SDS011;52058;49.822;6.754;2023-09-19T07:53:49;8.00;;;2.85;;
65459;SDS011;52058;49.822;6.754;2023-09-19T07:56:16;8.55;;;2.58;;
65459;SDS011;52058;49.822;6.754;2023-09-19T07:58:44;9.43;;;3.17;;
65459;SDS011;52058;49.822;6.754;2023-09-19T08:01:11;9.90;;;2.92;;
65459;SDS011;52058;49.822;6.754;2023-09-19T08:03:40;8.82;;;2.55;;
65459;SDS011;52058;49.822;6.754;2023-09-19T08:06:08;7.50;;;2.20;;
65459;SDS011;52058;49.822;6.754;2023-09-19T08:08:35;10.27;;;2.30;;
65459;SDS011;52058;49.822;6.754;2023-09-19T08:11:02;7.22;;;2.10;;
65459;SDS011;52058;49.822;6.754;2023-09-19T08:13:35;8.82;;;1.85;;
65459;SDS011;52058;49.822;6.754;2023-09-19T08:16:02;9.23;;;2.10;;
65459;SDS011;52058;49.822;6.754;2023-09-19T08:18:29;8.55;;;2.05;;
65459;SDS011;52058;49.822;6.754;2023-09-19T08:20:57;8.15;;;2.00;;
65459;SDS011;52058;49.822;6.754;2023-09-19T08:23:25;7.90;;;2.10;;
65459;SDS011;52058;49.822;6.754;2023-09-19T08:25:55;8.57;;;1.58;;
65459;SDS011;52058;49.822;6.754;2023-09-19T08:28:22;4.78;;;1.90;;
65459;SDS011;52058;49.822;6.754;2023-09-19T08:30:49;7.78;;;1.63;;
65459;SDS011;52058;49.822;6.754;2023-09-19T08:33:16;12.27;;;1.75;;
65459;SDS011;52058;49.822;6.754;2023-09-19T08:35:43;8.55;;;2.25;;
65459;SDS011;52058;49.822;6.754;2023-09-19T08:38:12;9.10;;;2.10;;
65459;SDS011;52058;49.822;6.754;2023-09-19T08:40:39;5.70;;;2.03;;
65459;SDS011;52058;49.822;6.754;2023-09-19T08:43:07;7.38;;;1.55;;
65459;SDS011;52058;49.822;6.754;2023-09-19T08:45:33;8.75;;;2.35;;
65459;SDS011;52058;49.822;6.754;2023-09-19T08:48:04;7.68;;;2.10;;
65459;SDS011;52058;49.822;6.754;2023-09-19T08:50:43;7.03;;;1.75;;
65459;SDS011;52058;49.822;6.754;2023-09-19T08:53:15;8.57;;;1.83;;
65459;SDS011;52058;49.822;6.754;2023-09-19T08:55:48;7.45;;;1.70;;
65459;SDS011;52058;49.822;6.754;2023-09-19T08:58:19;7.10;;;2.13;;
65459;SDS011;52058;49.822;6.754;2023-09-19T09:00:49;6.63;;;1.50;;
65459;SDS011;52058;49.822;6.754;2023-09-19T09:03:18;6.18;;;1.45;;
65459;SDS011;52058;49.822;6.754;2023-09-19T09:05:47;7.22;;;1.83;;
65459;SDS011;52058;49.822;6.754;2023-09-19T09:08:18;5.43;;;1.90;;
65459;SDS011;52058;49.822;6.754;2023-09-19T09:10:46;6.25;;;1.92;;
65459;SDS011;52058;49.822;6.754;2023-09-19T09:13:13;7.60;;;1.50;;
65459;SDS011;52058;49.822;6.754;2023-09-19T09:15:40;8.80;;;1.67;;
65459;SDS011;52058;49.822;6.754;2023-09-19T09:18:10;10.77;;;2.10;;
65459;SDS011;52058;49.822;6.754;2023-09-19T09:20:37;6.40;;;1.50;;
65459;SDS011;52058;49.822;6.754;2023-09-19T09:23:03;2.97;;;1.73;;
65459;SDS011;52058;49.822;6.754;2023-09-19T09:25:48;10.23;;;2.38;;
65459;SDS011;52058;49.822;6.754;2023-09-19T09:28:22;6.85;;;1.90;;
65459;SDS011;52058;49.822;6.754;2023-09-19T09:30:49;8.55;;;1.48;;
65459;SDS011;52058;49.822;6.754;2023-09-19T09:33:16;5.22;;;1.70;;
65459;SDS011;52058;49.822;6.754;2023-09-19T09:35:53;6.22;;;1.50;;
65459;SDS011;52058;49.822;6.754;2023-09-19T09:38:22;8.90;;;1.65;;
65459;SDS011;52058;49.822;6.754;2023-09-19T09:40:54;5.28;;;1.40;;
65459;SDS011;52058;49.822;6.754;2023-09-19T09:43:30;3.95;;;1.60;;
65459;SDS011;52058;49.822;6.754;2023-09-19T09:46:11;6.00;;;1.60;;
65459;SDS011;52058;49.822;6.754;2023-09-19T09:48:57;6.93;;;1.50;;
65459;SDS011;52058;49.822;6.754;2023-09-19T09:51:41;7.25;;;2.00;;
65459;SDS011;52058;49.822;6.754;2023-09-19T09:54:11;7.60;;;2.22;;
65459;SDS011;52058;49.822;6.754;2023-09-19T09:56:52;5.43;;;2.03;;
65459;SDS011;52058;49.822;6.754;2023-09-19T10:02:15;6.30;;;1.63;;
65459;SDS011;52058;49.822;6.754;2023-09-19T10:04:49;6.07;;;1.63;;
65459;SDS011;52058;49.822;6.754;2023-09-19T10:07:27;6.15;;;1.58;;
65459;SDS011;52058;49.822;6.754;2023-09-19T10:09:58;5.18;;;1.42;;
65459;SDS011;52058;49.822;6.754;2023-09-19T10:12:40;6.32;;;1.70;;
65459;SDS011;52058;49.822;6.754;2023-09-19T10:15:17;6.18;;;1.80;;
65459;SDS011;52058;49.822;6.754;2023-09-19T10:17:47;6.18;;;1.50;;
65459;SDS011;52058;49.822;6.754;2023-09-19T10:20:15;8.18;;;1.80;;
65459;SDS011;52058;49.822;6.754;2023-09-19T10:23:03;6.25;;;1.50;;
65459;SDS011;52058;49.822;6.754;2023-09-19T10:25:34;5.95;;;1.63;;
65459;SDS011;52058;49.822;6.754;2023-09-19T10:28:05;5.00;;;1.42;;
65459;SDS011;52058;49.822;6.754;2023-09-19T10:30:36;7.57;;;1.60;;
65459;SDS011;52058;49.822;6.754;2023-09-19T10:33:09;5.80;;;1.33;;
65459;SDS011;52058;49.822;6.754;2023-09-19T10:35:37;10.82;;;1.65;;
65459;SDS011;52058;49.822;6.754;2023-09-19T10:38:05;4.25;;;1.50;;
65459;SDS011;52058;49.822;6.754;2023-09-19T10:40:34;2.97;;;1.08;;
65459;SDS011;52058;49.822;6.754;2023-09-19T10:43:02;3.88;;;1.17;;
65459;SDS011;52058;49.822;6.754;2023-09-19T10:45:32;3.67;;;1.45;;
65459;SDS011;52058;49.822;6.754;2023-09-19T10:48:00;2.80;;;1.10;;
65459;SDS011;52058;49.822;6.754;2023-09-19T10:50:28;6.95;;;1.50;;
65459;SDS011;52058;49.822;6.754;2023-09-19T10:52:59;4.07;;;1.30;;
65459;SDS011;52058;49.822;6.754;2023-09-19T10:55:30;5.50;;;1.30;;
65459;SDS011;52058;49.822;6.754;2023-09-19T10:57:58;3.50;;;1.05;;
65459;SDS011;52058;49.822;6.754;2023-09-19T11:00:53;5.15;;;1.10;;
65459;SDS011;52058;49.822;6.754;2023-09-19T11:03:22;2.83;;;1.00;;
65459;SDS011;52058;49.822;6.754;2023-09-19T11:06:02;7.80;;;1.50;;
65459;SDS011;52058;49.822;6.754;2023-09-19T11:11:42;5.15;;;1.33;;
65459;SDS011;52058;49.822;6.754;2023-09-19T11:14:14;5.68;;;1.15;;
65459;SDS011;52058;49.822;6.754;2023-09-19T11:25:51;6.57;;;1.30;;
65459;SDS011;52058;49.822;6.754;2023-09-19T11:28:28;3.47;;;1.17;;
65459;SDS011;52058;49.822;6.754;2023-09-19T11:40:08;5.53;;;1.45;;
65459;SDS011;52058;49.822;6.754;2023-09-19T11:42:41;4.57;;;1.38;;
65459;SDS011;52058;49.822;6.754;2023-09-19T11:48:11;3.85;;;1.08;;
65459;SDS011;52058;49.822;6.754;2023-09-19T11:50:40;3.40;;;1.70;;
65459;SDS011;52058;49.822;6.754;2023-09-19T11:53:09;3.95;;;1.33;;
65459;SDS011;52058;49.822;6.754;2023-09-19T11:55:38;2.42;;;0.95;;
65459;SDS011;52058;49.822;6.754;2023-09-19T11:58:05;4.00;;;1.20;;
65459;SDS011;52058;49.822;6.754;2023-09-19T12:00:33;4.00;;;1.25;;
65459;SDS011;52058;49.822;6.754;2023-09-19T12:03:02;4.30;;;1.20;;
65459;SDS011;52058;49.822;6.754;2023-09-19T12:05:34;3.67;;;1.25;;
65459;SDS011;52058;49.822;6.754;2023-09-19T12:08:02;4.25;;;1.23;;
65459;SDS011;52058;49.822;6.754;2023-09-19T12:10:32;3.58;;;1.20;;
65459;SDS011;52058;49.822;6.754;2023-09-19T12:13:00;3.97;;;1.00;;
65459;SDS011;52058;49.822;6.754;2023-09-19T12:15:27;3.25;;;1.42;;
65459;SDS011;52058;49.822;6.754;2023-09-19T12:18:00;4.70;;;1.35;;
65459;SDS011;52058;49.822;6.754;2023-09-19T12:20:41;6.57;;;1.30;;
65459;SDS011;52058;49.822;6.754;2023-09-19T12:23:12;2.63;;;1.00;;
65459;SDS011;52058;49.822;6.754;2023-09-19T12:25:41;5.45;;;1.38;;
65459;SDS011;52058;49.822;6.754;2023-09-19T12:30:41;2.80;;;0.98;;
65459;SDS011;52058;49.822;6.754;2023-09-19T12:33:14;2.65;;;1.00;;
65459;SDS011;52058;49.822;6.754;2023-09-19T12:35:44;2.15;;;1.08;;
65459;SDS011;52058;49.822;6.754;2023-09-19T12:38:10;6.97;;;1.33;;
65459;SDS011;52058;49.822;6.754;2023-09-19T12:40:37;4.70;;;1.10;;
65459;SDS011;52058;49.822;6.754;2023-09-19T12:43:07;5.90;;;1.63;;
65459;SDS011;52058;49.822;6.754;2023-09-19T12:45:42;1.63;;;0.90;;
65459;SDS011;52058;49.822;6.754;2023-09-19T12:48:20;1.98;;;1.00;;
65459;SDS011;52058;49.822;6.754;2023-09-19T12:51:00;3.88;;;1.23;;
65459;SDS011;52058;49.822;6.754;2023-09-19T12:53:32;4.45;;;1.20;;
65459;SDS011;52058;49.822;6.754;2023-09-19T12:56:03;2.92;;;1.02;;
65459;SDS011;52058;49.822;6.754;2023-09-19T12:58:31;4.07;;;1.05;;
65459;SDS011;52058;49.822;6.754;2023-09-19T13:01:01;2.13;;;1.10;;
65459;SDS011;52058;49.822;6.754;2023-09-19T13:03:30;2.90;;;1.17;;
65459;SDS011;52058;49.822;6.754;2023-09-19T13:06:00;3.03;;;1.20;;
65459;SDS011;52058;49.822;6.754;2023-09-19T13:08:29;2.50;;;1.10;;
65459;SDS011;52058;49.822;6.754;2023-09-19T13:11:04;4.03;;;1.13;;
65459;SDS011;52058;49.822;6.754;2023-09-19T13:13:35;3.22;;;1.20;;
65459;SDS011;52058;49.822;6.754;2023-09-19T13:16:04;2.55;;;1.23;;
65459;SDS011;52058;49.822;6.754;2023-09-19T13:18:41;5.05;;;1.10;;
65459;SDS011;52058;49.822;6.754;2023-09-19T13:21:16;3.92;;;1.00;;
65459;SDS011;52058;49.822;6.754;2023-09-19T13:23:50;3.33;;;1.17;;
65459;SDS011;52058;49.822;6.754;2023-09-19T13:26:17;3.13;;;1.10;;
65459;SDS011;52058;49.822;6.754;2023-09-19T13:28:44;2.58;;;1.00;;
65459;SDS011;52058;49.822;6.754;2023-09-19T13:31:14;5.55;;;1.40;;
65459;SDS011;52058;49.822;6.754;2023-09-19T13:33:44;3.75;;;1.08;;
65459;SDS011;52058;49.822;6.754;2023-09-19T13:36:12;2.67;;;1.10;;
65459;SDS011;52058;49.822;6.754;2023-09-19T13:38:39;3.40;;;1.15;;
65459;SDS011;52058;49.822;6.754;2023-09-19T13:41:07;3.88;;;1.25;;
65459;SDS011;52058;49.822;6.754;2023-09-19T13:43:35;5.75;;;1.02;;
65459;SDS011;52058;49.822;6.754;2023-09-19T13:46:02;2.85;;;1.00;;
65459;SDS011;52058;49.822;6.754;2023-09-19T13:48:30;4.05;;;1.15;;
65459;SDS011;52058;49.822;6.754;2023-09-19T13:50:56;3.33;;;1.00;;
65459;SDS011;52058;49.822;6.754;2023-09-19T13:53:23;5.00;;;1.10;;
65459;SDS011;52058;49.822;6.754;2023-09-19T13:55:50;2.15;;;1.00;;
65459;SDS011;52058;49.822;6.754;2023-09-19T13:58:17;2.33;;;1.38;;
65459;SDS011;52058;49.822;6.754;2023-09-19T14:00:44;2.38;;;1.00;;
65459;SDS011;52058;49.822;6.754;2023-09-19T14:03:10;1.70;;;1.00;;
65459;SDS011;52058;49.822;6.754;2023-09-19T14:05:38;1.98;;;0.88;;
65459;SDS011;52058;49.822;6.754;2023-09-19T14:08:05;2.67;;;1.10;;
65459;SDS011;52058;49.822;6.754;2023-09-19T14:10:31;4.00;;;1.23;;
65459;SDS011;52058;49.822;6.754;2023-09-19T14:12:58;2.75;;;1.02;;
65459;SDS011;52058;49.822;6.754;2023-09-19T14:15:25;3.30;;;1.10;;
65459;SDS011;52058;49.822;6.754;2023-09-19T14:17:55;1.77;;;0.90;;
65459;SDS011;52058;49.822;6.754;2023-09-19T14:20:22;1.80;;;0.82;;
65459;SDS011;52058;49.822;6.754;2023-09-19T14:22:50;1.70;;;0.88;;
65459;SDS011;52058;49.822;6.754;2023-09-19T14:25:16;1.88;;;1.08;;
65459;SDS011;52058;49.822;6.754;2023-09-19T14:27:43;1.48;;;0.90;;
65459;SDS011;52058;49.822;6.754;2023-09-19T14:30:10;1.35;;;0.88;;
65459;SDS011;52058;49.822;6.754;2023-09-19T14:32:37;1.92;;;0.90;;
65459;SDS011;52058;49.822;6.754;2023-09-19T14:35:04;2.15;;;0.80;;
65459;SDS011;52058;49.822;6.754;2023-09-19T14:37:31;2.15;;;0.85;;
65459;SDS011;52058;49.822;6.754;2023-09-19T14:39:59;1.98;;;0.80;;
65459;SDS011;52058;49.822;6.754;2023-09-19T14:42:33;4.20;;;1.00;;
65459;SDS011;52058;49.822;6.754;2023-09-19T14:45:01;2.58;;;1.08;;
65459;SDS011;52058;49.822;6.754;2023-09-19T14:47:29;2.65;;;0.98;;
65459;SDS011;52058;49.822;6.754;2023-09-19T14:49:57;4.57;;;1.10;;
65459;SDS011;52058;49.822;6.754;2023-09-19T14:52:24;2.17;;;1.15;;
65459;SDS011;52058;49.822;6.754;2023-09-19T14:54:53;2.72;;;1.30;;
65459;SDS011;52058;49.822;6.754;2023-09-19T14:57:21;2.55;;;1.00;;
65459;SDS011;52058;49.822;6.754;2023-09-19T14:59:49;2.30;;;1.02;;
65459;SDS011;52058;49.822;6.754;2023-09-19T15:02:16;3.38;;;0.90;;
65459;SDS011;52058;49.822;6.754;2023-09-19T15:04:42;3.25;;;1.08;;
65459;SDS011;52058;49.822;6.754;2023-09-19T15:07:09;2.08;;;1.00;;
65459;SDS011;52058;49.822;6.754;2023-09-19T15:09:36;4.50;;;1.15;;
65459;SDS011;52058;49.822;6.754;2023-09-19T15:12:03;2.92;;;1.13;;
65459;SDS011;52058;49.822;6.754;2023-09-19T15:14:31;3.75;;;1.23;;
65459;SDS011;52058;49.822;6.754;2023-09-19T15:16:58;3.60;;;1.00;;
65459;SDS011;52058;49.822;6.754;2023-09-19T15:19:24;1.55;;;0.90;;
65459;SDS011;52058;49.822;6.754;2023-09-19T15:21:51;1.85;;;1.00;;
65459;SDS011;52058;49.822;6.754;2023-09-19T15:24:17;2.05;;;0.95;;
65459;SDS011;52058;49.822;6.754;2023-09-19T15:26:45;3.90;;;1.05;;